Celebrity Galaxy — 9HJH9 — position and weather

sailwx.info

Track history (hours):
 
Tides and Currents Weather Stations Pressure Air Temp Water Temp Dewpoint Dewpoint Depression Visibility Wind Speed Wind Dir Waves Ship Positions

Celebrity Galaxy

Last reported at 2018-Jul-22 01:26 UTC. Time now 2018-Jul-22 06:57 UTC.
Position N 39°10' E 003°11'.

Length 262 m.

Type: Passenger vessel. MMSI: 249051000.

Date/timePositionNaut miles runAvg speedWind from/ knotsBaromVisibWave heightAir tempDewpointWater temp
2018-Jul-22 01:26N 39°10' E 003°11'4 8.4
2018-Jul-22 01:00N 39°08' E 003°07'11 8.4
2018-Jul-21 23:40N 39°06' E 002°53'1 8.7
2018-Jul-21 23:30N 39°07' E 002°51'5 9.0
2018-Jul-21 23:00N 39°10' E 002°48'4 8.9
2018-Jul-21 22:31N 39°14' E 002°44'5 8.9
2018-Jul-21 22:00N 39°17' E 002°41'4 8.4
2018-Jul-21 21:30N 39°21' E 002°39'4 8.6
2018-Jul-21 21:00N 39°26' E 002°39'4 8.7
2018-Jul-21 20:30N 39°30' E 002°39'3 6.5
2018-Jul-21 20:00N 39°33' E 002°38'0 0.6
2018-Jul-21 19:30N 39°33' E 002°38'0 0.0
2018-Jul-21 19:00N 39°33' E 002°38'0 0.0
2018-Jul-21 18:30N 39°33' E 002°38'0 0.0
2018-Jul-21 18:00N 39°33' E 002°38'0 0.0
2018-Jul-21 17:30N 39°33' E 002°38'0 0.0
2018-Jul-21 17:00N 39°33' E 002°38'0 0.0
2018-Jul-21 16:30N 39°33' E 002°38'0 0.0
2018-Jul-21 16:00N 39°33' E 002°38'0 0.0
2018-Jul-21 15:30N 39°33' E 002°38'0 0.0
2018-Jul-21 15:00N 39°33' E 002°38'0 0.0
2018-Jul-21 14:30N 39°33' E 002°38'0 0.0
2018-Jul-21 13:29N 39°33' E 002°38'0 0.0
2018-Jul-21 12:59N 39°33' E 002°38'0 0.0
2018-Jul-21 12:29N 39°33' E 002°38'0 0.0
2018-Jul-21 11:59N 39°33' E 002°38'0 0.0
2018-Jul-21 11:29N 39°33' E 002°38'0 0.0
2018-Jul-21 10:59N 39°33' E 002°38'0 0.0
2018-Jul-21 10:29N 39°33' E 002°38'0 0.0
2018-Jul-21 09:47N 39°33' E 002°38'0 0.0
2018-Jul-21 09:29N 39°33' E 002°38'0 0.0
2018-Jul-21 08:59N 39°33' E 002°38'0 0.0
2018-Jul-21 08:29N 39°33' E 002°38'0 0.0
2018-Jul-21 07:59N 39°33' E 002°38'0 0.0
2018-Jul-21 07:29N 39°33' E 002°38'0 0.0
2018-Jul-21 06:59N 39°33' E 002°38'0 0.0
2018-Jul-21 06:29N 39°33' E 002°38'0 0.0
2018-Jul-21 05:59N 39°33' E 002°38'0 0.0
2018-Jul-21 05:29N 39°33' E 002°38'0 0.0
2018-Jul-21 04:56N 39°33' E 002°38'0 0.0
2018-Jul-21 04:29N 39°33' E 002°38'0 0.0
2018-Jul-21 03:59N 39°33' E 002°38'0 0.1
2018-Jul-21 03:30N 39°33' E 002°38'2 3.2
2018-Jul-21 03:00N 39°32' E 002°38'510.7
2018-Jul-21 02:30N 39°27' E 002°34'816.8
2018-Jul-21 02:00N 39°21' E 002°28'816.7
2018-Jul-21 01:30N 39°14' E 002°21'3316.8
2018-Jul-20 23:32N 38°48' E 001°56'117.2
2018-Jul-20 23:30N 38°47' E 001°55'917.4
2018-Jul-20 22:59N 38°41' E 001°47'817.4
2018-Jul-20 22:30N 38°35' E 001°40'1617.8
2018-Jul-20 21:36N 38°27' E 001°22'217.7
2018-Jul-20 21:30N 38°26' E 001°20'917.8
2018-Jul-20 21:00N 38°22' E 001°10'1017.6
2018-Jul-20 20:28N 38°17' E 000°60'917.7
2018-Jul-20 19:58N 38°12' E 000°50'817.7
2018-Jul-20 19:30N 38°08' E 000°41'917.6
2018-Jul-20 19:00N 38°04' E 000°31'4617.6
2018-Jul-20 16:24N 37°41' W 000°19'717.3
2018-Jul-20 16:00N 37°37' W 000°26'1016.9
2018-Jul-20 15:23N 37°31' W 000°37'717.4
2018-Jul-20 15:00N 37°31' W 000°45'  
2018-Jul-18 05:15N 36°08' W 007°12'518.4
2018-Jul-18 04:58N 36°09' W 007°19'7718.2
2018-Jul-18 00:44N 36°28' W 008°52'417.7
2018-Jul-18 00:29N 36°30' W 008°57'817.4
2018-Jul-18 00:00N 36°32' W 009°07'917.5
2018-Jul-17 23:29N 36°34' W 009°18'918.5
2018-Jul-17 22:59N 36°41' W 009°26'917.9
2018-Jul-17 22:29N 36°48' W 009°33'918.4
2018-Jul-17 22:00N 36°56' W 009°35'918.1
2018-Jul-17 21:30N 37°06' W 009°35'917.6
2018-Jul-17 21:00N 37°14' W 009°34'1318.5
2018-Jul-17 20:19N 37°27' W 009°32'618.6
2018-Jul-17 20:00N 37°33' W 009°32'1018.3
2018-Jul-17 19:28N 37°43' W 009°31'818.6
2018-Jul-17 19:00N 37°51' W 009°30'918.4
2018-Jul-17 18:30N 38°00' W 009°29'918.6
2018-Jul-17 18:00N 38°09' W 009°27'918.7
2018-Jul-17 17:30N 38°19' W 009°27'918.4
2018-Jul-17 17:00N 38°28' W 009°27'918.3
2018-Jul-17 16:30N 38°37' W 009°23'714.8
2018-Jul-17 16:00N 38°41' W 009°16'510.9
2018-Jul-17 15:30N 38°42' W 009°09'1 2.5
2018-Jul-17 15:00N 38°43' W 009°07'0 0.0
2018-Jul-17 14:31N 38°43' W 009°07'0 0.0
2018-Jul-17 13:59N 38°43' W 009°07'0 0.0
2018-Jul-17 13:30N 38°43' W 009°07'0 0.0
2018-Jul-17 12:57N 38°43' W 009°07'0 0.0
2018-Jul-17 12:30N 38°43' W 009°07'0 0.0
2018-Jul-17 11:58N 38°43' W 009°07'0 0.0
2018-Jul-17 11:30N 38°43' W 009°07'0 0.0
2018-Jul-17 10:53N 38°43' W 009°07'0 0.0
2018-Jul-17 10:28N 38°43' W 009°07'0 0.0
2018-Jul-17 10:01N 38°43' W 009°07'0 0.0
2018-Jul-17 09:30N 38°43' W 009°07'0 0.0
2018-Jul-17 09:00N 38°43' W 009°07'0 0.0
2018-Jul-17 08:29N 38°43' W 009°07'0 0.0
2018-Jul-17 08:00N 38°43' W 009°07'0 0.0
2018-Jul-17 07:29N 38°43' W 009°07'0 0.0
2018-Jul-17 06:59N 38°43' W 009°07'0 0.0
2018-Jul-17 06:28N 38°43' W 009°07'0 0.0
2018-Jul-17 06:00N 38°43' W 009°07'1 2.0
2018-Jul-17 05:30N 38°42' W 009°08'611.7
2018-Jul-17 05:00N 38°41' W 009°16'714.9
2018-Jul-17 04:31N 38°37' W 009°23'917.2
2018-Jul-17 04:00N 38°28' W 009°25'816.8
2018-Jul-17 03:30N 38°20' W 009°24'917.0
2018-Jul-17 03:00N 38°11' W 009°24'918.2
2018-Jul-17 02:30N 38°02' W 009°24'918.4
2018-Jul-17 02:00N 37°53' W 009°23'918.1
2018-Jul-17 01:30N 37°44' W 009°23'918.1
2018-Jul-17 01:00N 37°35' W 009°22'918.2
2018-Jul-17 00:30N 37°26' W 009°22'1918.2
2018-Jul-16 23:29N 37°07' W 009°22'918.5
2018-Jul-16 22:59N 36°58' W 009°20'2117.1
2018-Jul-16 21:45N 36°43' W 009°02'518.5
2018-Jul-16 21:27N 36°42' W 008°55'918.5
2018-Jul-16 20:59N 36°41' W 008°44'918.4
2018-Jul-16 20:30N 36°40' W 008°33'1118.1
2018-Jul-16 19:54N 36°40' W 008°20'918.4
2018-Jul-16 19:25N 36°39' W 008°09'818.2
2018-Jul-16 19:00N 36°38' W 007°59'122 6.8
2018-Jul-16 01:05N 35°58' W 005°37'116.7
2018-Jul-16 01:00N 35°58' W 005°35'815.5
2018-Jul-16 00:30N 36°00' W 005°26'713.9
2018-Jul-16 00:00N 36°02' W 005°18'713.1
2018-Jul-15 23:28N 36°03' W 005°09'31116.2
2018-Jul-15 04:18N 38°07' E 000°49'10218.8
2018-Jul-14 22:52N 39°17' E 002°24'718.8
2018-Jul-14 22:30N 39°22' E 002°29'917.8
2018-Jul-14 22:00N 39°29' E 002°36'4 7.3
2018-Jul-14 21:28N 39°33' E 002°38'0 0.2
2018-Jul-14 20:59N 39°33' E 002°38'0 0.0
2018-Jul-14 20:28N 39°33' E 002°38'0 0.0
2018-Jul-14 20:00N 39°33' E 002°38'0 0.0
2018-Jul-14 19:30N 39°33' E 002°38'0 0.0
2018-Jul-14 19:00N 39°33' E 002°38'0 0.0
2018-Jul-14 18:30N 39°33' E 002°38'0 0.0
2018-Jul-14 18:00N 39°33' E 002°38'0 0.0
2018-Jul-14 17:30N 39°33' E 002°38'0 0.0
2018-Jul-14 17:00N 39°33' E 002°38'0 0.0
2018-Jul-14 16:30N 39°33' E 002°38'0 0.0
2018-Jul-14 16:00N 39°33' E 002°38'0 0.0
2018-Jul-14 15:30N 39°33' E 002°38'0 0.0
2018-Jul-14 15:00N 39°33' E 002°38'0 0.0
2018-Jul-14 13:58N 39°33' E 002°38'0 0.0
2018-Jul-14 13:30N 39°33' E 002°38'0 0.0
2018-Jul-14 12:55N 39°33' E 002°38'0 0.0
2018-Jul-14 12:28N 39°33' E 002°38'0 0.0
2018-Jul-14 11:58N 39°33' E 002°38'0 0.0
2018-Jul-14 10:43N 39°33' E 002°38'0 0.0
2018-Jul-14 10:28N 39°33' E 002°38'0 0.0
2018-Jul-14 09:58N 39°33' E 002°38'0 0.0
2018-Jul-14 09:28N 39°33' E 002°38'0 0.0
2018-Jul-14 08:58N 39°33' E 002°38'0 0.0
2018-Jul-14 08:30N 39°33' E 002°38'0 0.0
2018-Jul-14 07:58N 39°33' E 002°38'0 0.0
2018-Jul-14 07:28N 39°33' E 002°38'0 0.0
2018-Jul-14 06:58N 39°33' E 002°38'0 0.0
2018-Jul-14 06:28N 39°33' E 002°38'0 0.0
2018-Jul-14 05:58N 39°33' E 002°38'0 0.0
2018-Jul-14 05:30N 39°33' E 002°38'0 0.0
2018-Jul-14 05:00N 39°33' E 002°38'0 0.0
2018-Jul-14 04:30N 39°33' E 002°38'0 0.0
2018-Jul-14 04:00N 39°33' E 002°38'0 0.0
2018-Jul-14 03:30N 39°33' E 002°38'2 4.0
2018-Jul-14 02:59N 39°31' E 002°38'612.9
2018-Jul-14 02:30N 39°26' E 002°33'713.2
2018-Jul-14 02:00N 39°27' E 002°25'1913.5
2018-Jul-14 00:38N 39°42' E 002°11'214.7
2018-Jul-14 00:30N 39°44' E 002°11'714.7
2018-Jul-14 00:00N 39°52' E 002°11'714.6
2018-Jul-13 23:30N 39°59' E 002°12'3414.6
2018-Jul-13 21:09N 40°33' E 002°11'215.1
2018-Jul-13 21:00N 40°35' E 002°11'815.2
2018-Jul-13 20:29N 40°43' E 002°11'914.8
2018-Jul-13 19:53N 40°52' E 002°11'615.2
2018-Jul-13 19:30N 40°58' E 002°11'714.8
2018-Jul-13 19:00N 41°05' E 002°11'714.6
2018-Jul-13 18:30N 41°13' E 002°11'713.1
2018-Jul-13 18:00N 41°19' E 002°10'2 4.1
2018-Jul-13 17:30N 41°21' E 002°10'0 0.0
2018-Jul-13 17:00N 41°21' E 002°10'0 0.0
2018-Jul-13 16:30N 41°21' E 002°10'0 0.0
2018-Jul-13 16:00N 41°21' E 002°10'0 0.0
2018-Jul-13 15:30N 41°21' E 002°10'0 0.0
2018-Jul-13 15:00N 41°21' E 002°10'0 0.0
2018-Jul-13 14:27N 41°21' E 002°10'0 0.0
2018-Jul-13 13:30N 41°21' E 002°10'0 0.0
2018-Jul-13 13:00N 41°21' E 002°10'0 0.0
2018-Jul-13 12:30N 41°21' E 002°10'0 0.0
2018-Jul-13 12:00N 41°21' E 002°10'0 0.0
2018-Jul-13 11:30N 41°21' E 002°10'0 0.0
2018-Jul-13 10:53N 41°21' E 002°10'0 0.0
2018-Jul-13 10:29N 41°21' E 002°10'0 0.0
2018-Jul-13 09:58N 41°21' E 002°10'0 0.0
2018-Jul-13 09:30N 41°21' E 002°10'0 0.0
2018-Jul-13 09:00N 41°21' E 002°10'0 0.0
2018-Jul-13 08:30N 41°21' E 002°10'0 0.0
2018-Jul-13 08:00N 41°21' E 002°10'0 0.0
2018-Jul-13 07:30N 41°21' E 002°10'0 0.0
2018-Jul-13 07:00N 41°21' E 002°10'1 1.2
2018-Jul-13 06:30N 41°21' E 002°10'4 7.5
2018-Jul-13 06:00N 41°17' E 002°11'612.5
2018-Jul-13 05:30N 41°18' E 002°19'918.2
2018-Jul-13 05:00N 41°21' E 002°31'11918.3
2018-Jul-12 22:30N 42°16' E 004°52'917.5
2018-Jul-12 22:00N 42°20' E 005°03'1517.7
2018-Jul-12 21:10N 42°27' E 005°21'317.7
2018-Jul-12 21:00N 42°28' E 005°24'1817.6
2018-Jul-12 19:58N 42°36' E 005°46'817.7
2018-Jul-12 19:30N 42°40' E 005°56'917.8
2018-Jul-12 19:00N 42°44' E 006°07'918.1
2018-Jul-12 18:30N 42°48' E 006°18'918.3
2018-Jul-12 18:00N 42°52' E 006°29'1018.2
2018-Jul-12 17:26N 42°60' E 006°39'818.0
2018-Jul-12 17:00N 43°05' E 006°46'917.6
2018-Jul-12 16:30N 43°14' E 006°47'12 1.0
2018-Jul-12 03:54N 43°23' E 006°58'512.6
2018-Jul-12 03:30N 43°25' E 007°05'612.7
2018-Jul-12 03:00N 43°26' E 007°14'712.7
2018-Jul-12 02:29N 43°28' E 007°22'612.8
2018-Jul-12 02:00N 43°30' E 007°30'  
Track history (hours):
 
Tides and Currents Weather Stations Pressure Air Temp Water Temp Dewpoint Dewpoint Depression Visibility Wind Speed Wind Dir Waves Ship Positions

Celebrity Galaxy

Last reported at 2018-Jul-22 01:26 UTC. Time now 2018-Jul-22 06:57 UTC.
Position N 39°10' E 003°11'.

Length 262 m.

Type: Passenger vessel. MMSI: 249051000.

Date/timePositionNaut miles runAvg speedWind from/ knotsBaromVisibWave heightAir tempDewpointWater temp
2018-Jul-22 01:26N 39°10' E 003°11'4 8.4
2018-Jul-22 01:00N 39°08' E 003°07'11 8.4
2018-Jul-21 23:40N 39°06' E 002°53'1 8.7
2018-Jul-21 23:30N 39°07' E 002°51'5 9.0
2018-Jul-21 23:00N 39°10' E 002°48'4 8.9
2018-Jul-21 22:31N 39°14' E 002°44'5 8.9
2018-Jul-21 22:00N 39°17' E 002°41'4 8.4
2018-Jul-21 21:30N 39°21' E 002°39'4 8.6
2018-Jul-21 21:00N 39°26' E 002°39'4 8.7
2018-Jul-21 20:30N 39°30' E 002°39'3 6.5
2018-Jul-21 20:00N 39°33' E 002°38'0 0.6
2018-Jul-21 19:30N 39°33' E 002°38'0 0.0
2018-Jul-21 19:00N 39°33' E 002°38'0 0.0
2018-Jul-21 18:30N 39°33' E 002°38'0 0.0
2018-Jul-21 18:00N 39°33' E 002°38'0 0.0
2018-Jul-21 17:30N 39°33' E 002°38'0 0.0
2018-Jul-21 17:00N 39°33' E 002°38'0 0.0
2018-Jul-21 16:30N 39°33' E 002°38'0 0.0
2018-Jul-21 16:00N 39°33' E 002°38'0 0.0
2018-Jul-21 15:30N 39°33' E 002°38'0 0.0
2018-Jul-21 15:00N 39°33' E 002°38'0 0.0
2018-Jul-21 14:30N 39°33' E 002°38'0 0.0
2018-Jul-21 13:29N 39°33' E 002°38'0 0.0
2018-Jul-21 12:59N 39°33' E 002°38'0 0.0
2018-Jul-21 12:29N 39°33' E 002°38'0 0.0
2018-Jul-21 11:59N 39°33' E 002°38'0 0.0
2018-Jul-21 11:29N 39°33' E 002°38'0 0.0
2018-Jul-21 10:59N 39°33' E 002°38'0 0.0
2018-Jul-21 10:29N 39°33' E 002°38'0 0.0
2018-Jul-21 09:47N 39°33' E 002°38'0 0.0
2018-Jul-21 09:29N 39°33' E 002°38'0 0.0
2018-Jul-21 08:59N 39°33' E 002°38'0 0.0
2018-Jul-21 08:29N 39°33' E 002°38'0 0.0
2018-Jul-21 07:59N 39°33' E 002°38'0 0.0
2018-Jul-21 07:29N 39°33' E 002°38'0 0.0
2018-Jul-21 06:59N 39°33' E 002°38'0 0.0
2018-Jul-21 06:29N 39°33' E 002°38'0 0.0
2018-Jul-21 05:59N 39°33' E 002°38'0 0.0
2018-Jul-21 05:29N 39°33' E 002°38'0 0.0
2018-Jul-21 04:56N 39°33' E 002°38'0 0.0
2018-Jul-21 04:29N 39°33' E 002°38'0 0.0
2018-Jul-21 03:59N 39°33' E 002°38'0 0.1
2018-Jul-21 03:30N 39°33' E 002°38'2 3.2
2018-Jul-21 03:00N 39°32' E 002°38'510.7
2018-Jul-21 02:30N 39°27' E 002°34'816.8
2018-Jul-21 02:00N 39°21' E 002°28'816.7
2018-Jul-21 01:30N 39°14' E 002°21'3316.8
2018-Jul-20 23:32N 38°48' E 001°56'117.2
2018-Jul-20 23:30N 38°47' E 001°55'917.4
2018-Jul-20 22:59N 38°41' E 001°47'817.4
2018-Jul-20 22:30N 38°35' E 001°40'1617.8
2018-Jul-20 21:36N 38°27' E 001°22'217.7
2018-Jul-20 21:30N 38°26' E 001°20'917.8
2018-Jul-20 21:00N 38°22' E 001°10'1017.6
2018-Jul-20 20:28N 38°17' E 000°60'917.7
2018-Jul-20 19:58N 38°12' E 000°50'817.7
2018-Jul-20 19:30N 38°08' E 000°41'917.6
2018-Jul-20 19:00N 38°04' E 000°31'4617.6
2018-Jul-20 16:24N 37°41' W 000°19'717.3
2018-Jul-20 16:00N 37°37' W 000°26'1016.9
2018-Jul-20 15:23N 37°31' W 000°37'717.4
2018-Jul-20 15:00N 37°31' W 000°45'  
2018-Jul-18 05:15N 36°08' W 007°12'518.4
2018-Jul-18 04:58N 36°09' W 007°19'7718.2
2018-Jul-18 00:44N 36°28' W 008°52'417.7
2018-Jul-18 00:29N 36°30' W 008°57'817.4
2018-Jul-18 00:00N 36°32' W 009°07'917.5
2018-Jul-17 23:29N 36°34' W 009°18'918.5
2018-Jul-17 22:59N 36°41' W 009°26'917.9
2018-Jul-17 22:29N 36°48' W 009°33'918.4
2018-Jul-17 22:00N 36°56' W 009°35'918.1
2018-Jul-17 21:30N 37°06' W 009°35'917.6
2018-Jul-17 21:00N 37°14' W 009°34'1318.5
2018-Jul-17 20:19N 37°27' W 009°32'618.6
2018-Jul-17 20:00N 37°33' W 009°32'1018.3
2018-Jul-17 19:28N 37°43' W 009°31'818.6
2018-Jul-17 19:00N 37°51' W 009°30'918.4
2018-Jul-17 18:30N 38°00' W 009°29'918.6
2018-Jul-17 18:00N 38°09' W 009°27'918.7
2018-Jul-17 17:30N 38°19' W 009°27'918.4
2018-Jul-17 17:00N 38°28' W 009°27'918.3
2018-Jul-17 16:30N 38°37' W 009°23'714.8
2018-Jul-17 16:00N 38°41' W 009°16'510.9
2018-Jul-17 15:30N 38°42' W 009°09'1 2.5
2018-Jul-17 15:00N 38°43' W 009°07'0 0.0
2018-Jul-17 14:31N 38°43' W 009°07'0 0.0
2018-Jul-17 13:59N 38°43' W 009°07'0 0.0
2018-Jul-17 13:30N 38°43' W 009°07'0 0.0
2018-Jul-17 12:57N 38°43' W 009°07'0 0.0
2018-Jul-17 12:30N 38°43' W 009°07'0 0.0
2018-Jul-17 11:58N 38°43' W 009°07'0 0.0
2018-Jul-17 11:30N 38°43' W 009°07'0 0.0
2018-Jul-17 10:53N 38°43' W 009°07'0 0.0
2018-Jul-17 10:28N 38°43' W 009°07'0 0.0
2018-Jul-17 10:01N 38°43' W 009°07'0 0.0
2018-Jul-17 09:30N 38°43' W 009°07'0 0.0
2018-Jul-17 09:00N 38°43' W 009°07'0 0.0
2018-Jul-17 08:29N 38°43' W 009°07'0 0.0
2018-Jul-17 08:00N 38°43' W 009°07'0 0.0
2018-Jul-17 07:29N 38°43' W 009°07'0 0.0
2018-Jul-17 06:59N 38°43' W 009°07'0 0.0
2018-Jul-17 06:28N 38°43' W 009°07'0 0.0
2018-Jul-17 06:00N 38°43' W 009°07'1 2.0
2018-Jul-17 05:30N 38°42' W 009°08'611.7
2018-Jul-17 05:00N 38°41' W 009°16'714.9
2018-Jul-17 04:31N 38°37' W 009°23'917.2
2018-Jul-17 04:00N 38°28' W 009°25'816.8
2018-Jul-17 03:30N 38°20' W 009°24'917.0
2018-Jul-17 03:00N 38°11' W 009°24'918.2
2018-Jul-17 02:30N 38°02' W 009°24'918.4
2018-Jul-17 02:00N 37°53' W 009°23'918.1
2018-Jul-17 01:30N 37°44' W 009°23'918.1
2018-Jul-17 01:00N 37°35' W 009°22'918.2
2018-Jul-17 00:30N 37°26' W 009°22'1918.2
2018-Jul-16 23:29N 37°07' W 009°22'918.5
2018-Jul-16 22:59N 36°58' W 009°20'2117.1
2018-Jul-16 21:45N 36°43' W 009°02'518.5
2018-Jul-16 21:27N 36°42' W 008°55'918.5
2018-Jul-16 20:59N 36°41' W 008°44'918.4
2018-Jul-16 20:30N 36°40' W 008°33'1118.1
2018-Jul-16 19:54N 36°40' W 008°20'918.4
2018-Jul-16 19:25N 36°39' W 008°09'818.2
2018-Jul-16 19:00N 36°38' W 007°59'122 6.8
2018-Jul-16 01:05N 35°58' W 005°37'116.7
2018-Jul-16 01:00N 35°58' W 005°35'815.5
2018-Jul-16 00:30N 36°00' W 005°26'713.9
2018-Jul-16 00:00N 36°02' W 005°18'713.1
2018-Jul-15 23:28N 36°03' W 005°09'31116.2
2018-Jul-15 04:18N 38°07' E 000°49'10218.8
2018-Jul-14 22:52N 39°17' E 002°24'718.8
2018-Jul-14 22:30N 39°22' E 002°29'917.8
2018-Jul-14 22:00N 39°29' E 002°36'4 7.3
2018-Jul-14 21:28N 39°33' E 002°38'0 0.2
2018-Jul-14 20:59N 39°33' E 002°38'0 0.0
2018-Jul-14 20:28N 39°33' E 002°38'0 0.0
2018-Jul-14 20:00N 39°33' E 002°38'0 0.0
2018-Jul-14 19:30N 39°33' E 002°38'0 0.0
2018-Jul-14 19:00N 39°33' E 002°38'0 0.0
2018-Jul-14 18:30N 39°33' E 002°38'0 0.0
2018-Jul-14 18:00N 39°33' E 002°38'0 0.0
2018-Jul-14 17:30N 39°33' E 002°38'0 0.0
2018-Jul-14 17:00N 39°33' E 002°38'0 0.0
2018-Jul-14 16:30N 39°33' E 002°38'0 0.0
2018-Jul-14 16:00N 39°33' E 002°38'0 0.0
2018-Jul-14 15:30N 39°33' E 002°38'0 0.0
2018-Jul-14 15:00N 39°33' E 002°38'0 0.0
2018-Jul-14 13:58N 39°33' E 002°38'0 0.0
2018-Jul-14 13:30N 39°33' E 002°38'0 0.0
2018-Jul-14 12:55N 39°33' E 002°38'0 0.0
2018-Jul-14 12:28N 39°33' E 002°38'0 0.0
2018-Jul-14 11:58N 39°33' E 002°38'0 0.0
2018-Jul-14 10:43N 39°33' E 002°38'0 0.0
2018-Jul-14 10:28N 39°33' E 002°38'0 0.0
2018-Jul-14 09:58N 39°33' E 002°38'0 0.0
2018-Jul-14 09:28N 39°33' E 002°38'0 0.0
2018-Jul-14 08:58N 39°33' E 002°38'0 0.0
2018-Jul-14 08:30N 39°33' E 002°38'0 0.0
2018-Jul-14 07:58N 39°33' E 002°38'0 0.0
2018-Jul-14 07:28N 39°33' E 002°38'0 0.0
2018-Jul-14 06:58N 39°33' E 002°38'0 0.0
2018-Jul-14 06:28N 39°33' E 002°38'0 0.0
2018-Jul-14 05:58N 39°33' E 002°38'0 0.0
2018-Jul-14 05:30N 39°33' E 002°38'0 0.0
2018-Jul-14 05:00N 39°33' E 002°38'0 0.0
2018-Jul-14 04:30N 39°33' E 002°38'0 0.0
2018-Jul-14 04:00N 39°33' E 002°38'0 0.0
2018-Jul-14 03:30N 39°33' E 002°38'2 4.0
2018-Jul-14 02:59N 39°31' E 002°38'612.9
2018-Jul-14 02:30N 39°26' E 002°33'713.2
2018-Jul-14 02:00N 39°27' E 002°25'1913.5
2018-Jul-14 00:38N 39°42' E 002°11'214.7
2018-Jul-14 00:30N 39°44' E 002°11'714.7
2018-Jul-14 00:00N 39°52' E 002°11'714.6
2018-Jul-13 23:30N 39°59' E 002°12'3414.6
2018-Jul-13 21:09N 40°33' E 002°11'215.1
2018-Jul-13 21:00N 40°35' E 002°11'815.2
2018-Jul-13 20:29N 40°43' E 002°11'914.8
2018-Jul-13 19:53N 40°52' E 002°11'615.2
2018-Jul-13 19:30N 40°58' E 002°11'714.8
2018-Jul-13 19:00N 41°05' E 002°11'714.6
2018-Jul-13 18:30N 41°13' E 002°11'713.1
2018-Jul-13 18:00N 41°19' E 002°10'2 4.1
2018-Jul-13 17:30N 41°21' E 002°10'0 0.0
2018-Jul-13 17:00N 41°21' E 002°10'0 0.0
2018-Jul-13 16:30N 41°21' E 002°10'0 0.0
2018-Jul-13 16:00N 41°21' E 002°10'0 0.0
2018-Jul-13 15:30N 41°21' E 002°10'0 0.0
2018-Jul-13 15:00N 41°21' E 002°10'0 0.0
2018-Jul-13 14:27N 41°21' E 002°10'0 0.0
2018-Jul-13 13:30N 41°21' E 002°10'0 0.0
2018-Jul-13 13:00N 41°21' E 002°10'0 0.0
2018-Jul-13 12:30N 41°21' E 002°10'0 0.0
2018-Jul-13 12:00N 41°21' E 002°10'0 0.0
2018-Jul-13 11:30N 41°21' E 002°10'0 0.0
2018-Jul-13 10:53N 41°21' E 002°10'0 0.0
2018-Jul-13 10:29N 41°21' E 002°10'0 0.0
2018-Jul-13 09:58N 41°21' E 002°10'0 0.0
2018-Jul-13 09:30N 41°21' E 002°10'0 0.0
2018-Jul-13 09:00N 41°21' E 002°10'0 0.0
2018-Jul-13 08:30N 41°21' E 002°10'0 0.0
2018-Jul-13 08:00N 41°21' E 002°10'0 0.0
2018-Jul-13 07:30N 41°21' E 002°10'0 0.0
2018-Jul-13 07:00N 41°21' E 002°10'1 1.2
2018-Jul-13 06:30N 41°21' E 002°10'4 7.5
2018-Jul-13 06:00N 41°17' E 002°11'612.5
2018-Jul-13 05:30N 41°18' E 002°19'918.2
2018-Jul-13 05:00N 41°21' E 002°31'11918.3
2018-Jul-12 22:30N 42°16' E 004°52'917.5
2018-Jul-12 22:00N 42°20' E 005°03'1517.7
2018-Jul-12 21:10N 42°27' E 005°21'317.7
2018-Jul-12 21:00N 42°28' E 005°24'1817.6
2018-Jul-12 19:58N 42°36' E 005°46'817.7
2018-Jul-12 19:30N 42°40' E 005°56'917.8
2018-Jul-12 19:00N 42°44' E 006°07'918.1
2018-Jul-12 18:30N 42°48' E 006°18'918.3
2018-Jul-12 18:00N 42°52' E 006°29'1018.2
2018-Jul-12 17:26N 42°60' E 006°39'818.0
2018-Jul-12 17:00N 43°05' E 006°46'917.6
2018-Jul-12 16:30N 43°14' E 006°47'12 1.0
2018-Jul-12 03:54N 43°23' E 006°58'512.6
2018-Jul-12 03:30N 43°25' E 007°05'612.7
2018-Jul-12 03:00N 43°26' E 007°14'712.7
2018-Jul-12 02:29N 43°28' E 007°22'612.8
2018-Jul-12 02:00N 43°30' E 007°30'  

Dump ship's entire track history